sensor_id;sensor_type;location;lat;lon;timestamp;pressure;altitude;pressure_sealevel;temperature;humidity
13604;BME280;24578;48.264;11.436;2023-08-01T00:04:35;95345.94;;;18.01;100.00
13604;BME280;24578;48.264;11.436;2023-08-01T00:10:56;95340.34;;;18.04;100.00
13604;BME280;24578;48.264;11.436;2023-08-01T00:17:17;95336.25;;;18.02;100.00
13604;BME280;24578;48.264;11.436;2023-08-01T00:23:39;95320.19;;;18.05;100.00
13604;BME280;24578;48.264;11.436;2023-08-01T00:30:00;95309.53;;;18.06;100.00
13604;BME280;24578;48.264;11.436;2023-08-01T00:36:21;95303.06;;;18.02;100.00
13604;BME280;24578;48.264;11.436;2023-08-01T00:42:42;95297.22;;;17.92;100.00
13604;BME280;24578;48.264;11.436;2023-08-01T00:49:04;95268.91;;;17.95;100.00
13604;BME280;24578;48.264;11.436;2023-08-01T00:55:26;95279.44;;;17.87;100.00
13604;BME280;24578;48.264;11.436;2023-08-01T01:01:48;95266.78;;;17.91;100.00
13604;BME280;24578;48.264;11.436;2023-08-01T01:08:09;95246.75;;;17.83;100.00
13604;BME280;24578;48.264;11.436;2023-08-01T01:14:31;95243.06;;;17.77;100.00
13604;BME280;24578;48.264;11.436;2023-08-01T01:20:52;95223.66;;;17.72;100.00
13604;BME280;24578;48.264;11.436;2023-08-01T01:27:14;95241.91;;;17.80;100.00
13604;BME280;24578;48.264;11.436;2023-08-01T01:33:36;95230.44;;;17.66;100.00
13604;BME280;24578;48.264;11.436;2023-08-01T01:39:57;95219.53;;;17.62;100.00
13604;BME280;24578;48.264;11.436;2023-08-01T01:46:19;95217.34;;;17.66;100.00
13604;BME280;24578;48.264;11.436;2023-08-01T01:52:40;95202.56;;;17.58;100.00
13604;BME280;24578;48.264;11.436;2023-08-01T01:59:01;95184.34;;;17.50;100.00
13604;BME280;24578;48.264;11.436;2023-08-01T02:05:23;95169.44;;;17.50;100.00
13604;BME280;24578;48.264;11.436;2023-08-01T02:11:44;95177.94;;;17.53;100.00
13604;BME280;24578;48.264;11.436;2023-08-01T02:18:05;95162.41;;;17.51;100.00
13604;BME280;24578;48.264;11.436;2023-08-01T02:24:26;95161.94;;;17.47;100.00
13604;BME280;24578;48.264;11.436;2023-08-01T02:30:48;95154.00;;;17.41;100.00
13604;BME280;24578;48.264;11.436;2023-08-01T02:37:10;95141.47;;;17.36;100.00
13604;BME280;24578;48.264;11.436;2023-08-01T02:43:31;95145.63;;;17.30;100.00
13604;BME280;24578;48.264;11.436;2023-08-01T02:49:53;95153.03;;;17.27;100.00
13604;BME280;24578;48.264;11.436;2023-08-01T02:56:14;95145.09;;;17.20;100.00
13604;BME280;24578;48.264;11.436;2023-08-01T03:02:36;95156.88;;;17.16;100.00
13604;BME280;24578;48.264;11.436;2023-08-01T03:08:57;95160.38;;;17.08;100.00
13604;BME280;24578;48.264;11.436;2023-08-01T03:15:19;95177.50;;;16.96;100.00
13604;BME280;24578;48.264;11.436;2023-08-01T03:21:41;95168.50;;;16.90;100.00
13604;BME280;24578;48.264;11.436;2023-08-01T03:28:04;95175.00;;;16.94;100.00
13604;BME280;24578;48.264;11.436;2023-08-01T03:34:25;95157.78;;;16.85;100.00
13604;BME280;24578;48.264;11.436;2023-08-01T03:40:48;95169.91;;;16.78;100.00
13604;BME280;24578;48.264;11.436;2023-08-01T03:47:10;95164.13;;;16.67;100.00
13604;BME280;24578;48.264;11.436;2023-08-01T03:53:31;95183.81;;;16.55;100.00
13604;BME280;24578;48.264;11.436;2023-08-01T03:59:52;95182.22;;;16.46;100.00
13604;BME280;24578;48.264;11.436;2023-08-01T04:06:13;95197.50;;;16.34;100.00
13604;BME280;24578;48.264;11.436;2023-08-01T04:12:36;95176.63;;;16.25;100.00
13604;BME280;24578;48.264;11.436;2023-08-01T04:18:57;95180.41;;;16.23;100.00
13604;BME280;24578;48.264;11.436;2023-08-01T04:25:18;95187.28;;;16.24;100.00
13604;BME280;24578;48.264;11.436;2023-08-01T04:31:40;95184.00;;;16.22;100.00
13604;BME280;24578;48.264;11.436;2023-08-01T04:38:01;95167.88;;;16.18;100.00
13604;BME280;24578;48.264;11.436;2023-08-01T04:44:22;95155.56;;;16.04;100.00
13604;BME280;24578;48.264;11.436;2023-08-01T04:50:44;95147.47;;;16.22;100.00
13604;BME280;24578;48.264;11.436;2023-08-01T04:57:06;95138.47;;;16.24;100.00
13604;BME280;24578;48.264;11.436;2023-08-01T05:03:27;95132.19;;;16.10;100.00
13604;BME280;24578;48.264;11.436;2023-08-01T05:09:48;95123.72;;;16.08;100.00
13604;BME280;24578;48.264;11.436;2023-08-01T05:16:09;95120.13;;;16.09;100.00
13604;BME280;24578;48.264;11.436;2023-08-01T05:22:31;95104.41;;;16.18;100.00
13604;BME280;24578;48.264;11.436;2023-08-01T05:28:52;95108.19;;;16.38;100.00
13604;BME280;24578;48.264;11.436;2023-08-01T05:35:13;95128.19;;;16.23;100.00
13604;BME280;24578;48.264;11.436;2023-08-01T05:41:34;95125.94;;;16.20;100.00
13604;BME280;24578;48.264;11.436;2023-08-01T05:47:57;95124.63;;;16.47;100.00
13604;BME280;24578;48.264;11.436;2023-08-01T05:54:18;95111.78;;;16.75;100.00
13604;BME280;24578;48.264;11.436;2023-08-01T06:00:40;95100.75;;;16.88;100.00
13604;BME280;24578;48.264;11.436;2023-08-01T06:07:01;95100.97;;;17.02;100.00
13604;BME280;24578;48.264;11.436;2023-08-01T06:13:22;95086.38;;;17.23;100.00
13604;BME280;24578;48.264;11.436;2023-08-01T06:19:43;95048.44;;;17.27;100.00
13604;BME280;24578;48.264;11.436;2023-08-01T06:26:05;95037.97;;;17.27;100.00
13604;BME280;24578;48.264;11.436;2023-08-01T06:32:26;95010.00;;;17.42;100.00
13604;BME280;24578;48.264;11.436;2023-08-01T06:38:47;94995.16;;;17.49;100.00
13604;BME280;24578;48.264;11.436;2023-08-01T06:45:09;94977.91;;;17.55;100.00
13604;BME280;24578;48.264;11.436;2023-08-01T06:51:30;94982.28;;;17.48;100.00
13604;BME280;24578;48.264;11.436;2023-08-01T06:57:51;94984.84;;;17.63;100.00
13604;BME280;24578;48.264;11.436;2023-08-01T07:04:13;94979.25;;;17.66;100.00
13604;BME280;24578;48.264;11.436;2023-08-01T07:10:34;94975.03;;;17.87;100.00
13604;BME280;24578;48.264;11.436;2023-08-01T07:16:56;94963.25;;;18.19;100.00
13604;BME280;24578;48.264;11.436;2023-08-01T07:23:17;94978.03;;;18.55;100.00
13604;BME280;24578;48.264;11.436;2023-08-01T07:29:38;94945.84;;;18.68;100.00
13604;BME280;24578;48.264;11.436;2023-08-01T07:36:00;94923.13;;;18.82;100.00
13604;BME280;24578;48.264;11.436;2023-08-01T07:42:21;94998.00;;;18.92;100.00
13604;BME280;24578;48.264;11.436;2023-08-01T07:48:43;94993.00;;;19.45;100.00
13604;BME280;24578;48.264;11.436;2023-08-01T07:55:04;95000.44;;;20.44;96.68
13604;BME280;24578;48.264;11.436;2023-08-01T08:01:27;94976.31;;;21.08;84.57
13604;BME280;24578;48.264;11.436;2023-08-01T08:07:49;94956.28;;;21.52;75.50
13604;BME280;24578;48.264;11.436;2023-08-01T08:14:10;94967.97;;;21.70;77.15
13604;BME280;24578;48.264;11.436;2023-08-01T08:20:40;94970.41;;;21.65;76.35
13604;BME280;24578;48.264;11.436;2023-08-01T08:27:01;94970.81;;;21.16;78.89
13604;BME280;24578;48.264;11.436;2023-08-01T08:33:24;94985.38;;;21.71;76.01
13604;BME280;24578;48.264;11.436;2023-08-01T08:39:46;94994.34;;;21.56;77.02
13604;BME280;24578;48.264;11.436;2023-08-01T08:46:09;94991.50;;;21.58;77.85
13604;BME280;24578;48.264;11.436;2023-08-01T08:52:30;94989.25;;;21.62;77.32
13604;BME280;24578;48.264;11.436;2023-08-01T08:58:51;94992.72;;;21.55;78.12
13604;BME280;24578;48.264;11.436;2023-08-01T09:05:13;95008.03;;;21.20;83.51
13604;BME280;24578;48.264;11.436;2023-08-01T09:11:48;95020.06;;;21.54;83.66
13604;BME280;24578;48.264;11.436;2023-08-01T09:18:10;95024.91;;;22.60;76.83
13604;BME280;24578;48.264;11.436;2023-08-01T09:24:34;95018.16;;;23.08;71.04
13604;BME280;24578;48.264;11.436;2023-08-01T09:30:56;95034.34;;;22.49;72.21
13604;BME280;24578;48.264;11.436;2023-08-01T09:37:18;95019.44;;;22.30;73.98
13604;BME280;24578;48.264;11.436;2023-08-01T09:43:39;95042.78;;;22.26;70.50
13604;BME280;24578;48.264;11.436;2023-08-01T09:50:01;95036.97;;;22.17;70.03
13604;BME280;24578;48.264;11.436;2023-08-01T09:56:24;95029.69;;;22.45;71.09
13604;BME280;24578;48.264;11.436;2023-08-01T10:02:46;95040.63;;;22.48;68.81
13604;BME280;24578;48.264;11.436;2023-08-01T10:09:10;95074.78;;;21.39;81.86
13604;BME280;24578;48.264;11.436;2023-08-01T10:15:32;95075.28;;;19.31;100.00
13604;BME280;24578;48.264;11.436;2023-08-01T10:21:54;95098.91;;;17.94;100.00
13604;BME280;24578;48.264;11.436;2023-08-01T10:28:15;95084.41;;;16.95;100.00
13604;BME280;24578;48.264;11.436;2023-08-01T10:34:37;95066.38;;;17.15;100.00
13604;BME280;24578;48.264;11.436;2023-08-01T10:40:58;95049.09;;;17.50;100.00
13604;BME280;24578;48.264;11.436;2023-08-01T10:47:26;95018.13;;;17.91;100.00
13604;BME280;24578;48.264;11.436;2023-08-01T10:53:48;94985.50;;;17.87;100.00
13604;BME280;24578;48.264;11.436;2023-08-01T11:00:09;95007.13;;;17.95;100.00
13604;BME280;24578;48.264;11.436;2023-08-01T11:06:31;95035.81;;;18.25;100.00
13604;BME280;24578;48.264;11.436;2023-08-01T11:12:52;95034.22;;;18.81;100.00
13604;BME280;24578;48.264;11.436;2023-08-01T11:19:23;95021.50;;;19.07;100.00
13604;BME280;24578;48.264;11.436;2023-08-01T11:25:45;95040.88;;;20.16;100.00
13604;BME280;24578;48.264;11.436;2023-08-01T11:32:10;95043.28;;;20.18;100.00
13604;BME280;24578;48.264;11.436;2023-08-01T11:38:33;95050.44;;;19.82;100.00
13604;BME280;24578;48.264;11.436;2023-08-01T11:45:10;95033.38;;;19.51;100.00
13604;BME280;24578;48.264;11.436;2023-08-01T11:51:39;95070.50;;;18.78;100.00
13604;BME280;24578;48.264;11.436;2023-08-01T11:58:01;95078.53;;;18.26;100.00
13604;BME280;24578;48.264;11.436;2023-08-01T12:04:27;95073.84;;;18.43;100.00
13604;BME280;24578;48.264;11.436;2023-08-01T12:10:48;95085.53;;;18.69;100.00
13604;BME280;24578;48.264;11.436;2023-08-01T12:17:10;95088.88;;;19.06;100.00
13604;BME280;24578;48.264;11.436;2023-08-01T12:23:31;95094.09;;;18.56;100.00
13604;BME280;24578;48.264;11.436;2023-08-01T12:29:52;95088.88;;;18.34;100.00
13604;BME280;24578;48.264;11.436;2023-08-01T12:36:14;95098.50;;;19.34;100.00
13604;BME280;24578;48.264;11.436;2023-08-01T12:42:36;95090.91;;;19.95;100.00
13604;BME280;24578;48.264;11.436;2023-08-01T12:48:58;95079.91;;;19.71;100.00
13604;BME280;24578;48.264;11.436;2023-08-01T12:55:19;95079.69;;;20.41;100.00
13604;BME280;24578;48.264;11.436;2023-08-01T13:01:40;95072.28;;;21.57;100.00
13604;BME280;24578;48.264;11.436;2023-08-01T13:08:02;95075.34;;;21.54;100.00
13604;BME280;24578;48.264;11.436;2023-08-01T13:14:24;95067.38;;;21.09;100.00
13604;BME280;24578;48.264;11.436;2023-08-01T13:20:45;95077.66;;;20.43;100.00
13604;BME280;24578;48.264;11.436;2023-08-01T13:27:06;95071.88;;;22.38;100.00
13604;BME280;24578;48.264;11.436;2023-08-01T13:33:30;95057.22;;;25.25;81.63
13604;BME280;24578;48.264;11.436;2023-08-01T13:39:52;95072.88;;;26.66;60.40
13604;BME280;24578;48.264;11.436;2023-08-01T13:46:18;95069.53;;;23.99;72.33
13604;BME280;24578;48.264;11.436;2023-08-01T13:52:41;95080.06;;;22.30;98.42
13604;BME280;24578;48.264;11.436;2023-08-01T13:59:03;95091.63;;;20.71;100.00
13604;BME280;24578;48.264;11.436;2023-08-01T14:05:25;95089.59;;;19.28;100.00
13604;BME280;24578;48.264;11.436;2023-08-01T14:11:47;95076.31;;;17.71;100.00
13604;BME280;24578;48.264;11.436;2023-08-01T14:18:10;95065.03;;;17.19;100.00
13604;BME280;24578;48.264;11.436;2023-08-01T14:24:31;95061.31;;;18.17;100.00
13604;BME280;24578;48.264;11.436;2023-08-01T14:30:52;95057.34;;;21.44;100.00
13604;BME280;24578;48.264;11.436;2023-08-01T14:37:14;95085.38;;;21.84;100.00
13604;BME280;24578;48.264;11.436;2023-08-01T14:43:35;95080.09;;;21.25;100.00
13604;BME280;24578;48.264;11.436;2023-08-01T14:49:57;95087.78;;;21.13;100.00
13604;BME280;24578;48.264;11.436;2023-08-01T14:56:18;95098.13;;;20.88;100.00
13604;BME280;24578;48.264;11.436;2023-08-01T15:02:39;95112.06;;;20.62;100.00
13604;BME280;24578;48.264;11.436;2023-08-01T15:09:00;95118.56;;;20.79;100.00
13604;BME280;24578;48.264;11.436;2023-08-01T15:15:22;95116.09;;;20.64;100.00
13604;BME280;24578;48.264;11.436;2023-08-01T15:21:44;95098.25;;;20.13;100.00
13604;BME280;24578;48.264;11.436;2023-08-01T15:28:06;95097.06;;;20.29;100.00
13604;BME280;24578;48.264;11.436;2023-08-01T15:34:27;95092.03;;;20.67;100.00
13604;BME280;24578;48.264;11.436;2023-08-01T15:40:48;95083.88;;;20.02;100.00
13604;BME280;24578;48.264;11.436;2023-08-01T15:47:13;95079.63;;;20.07;100.00
13604;BME280;24578;48.264;11.436;2023-08-01T15:53:34;95086.25;;;19.90;100.00
13604;BME280;24578;48.264;11.436;2023-08-01T15:59:56;95080.72;;;19.78;100.00
13604;BME280;24578;48.264;11.436;2023-08-01T16:06:17;95102.50;;;19.65;100.00
13604;BME280;24578;48.264;11.436;2023-08-01T16:12:38;95099.41;;;19.55;100.00
13604;BME280;24578;48.264;11.436;2023-08-01T16:19:00;95114.13;;;19.49;100.00
13604;BME280;24578;48.264;11.436;2023-08-01T16:25:22;95102.44;;;19.52;100.00
13604;BME280;24578;48.264;11.436;2023-08-01T16:31:44;95107.16;;;19.28;100.00
13604;BME280;24578;48.264;11.436;2023-08-01T16:38:06;95115.59;;;19.23;100.00
13604;BME280;24578;48.264;11.436;2023-08-01T16:44:27;95113.59;;;19.25;100.00
13604;BME280;24578;48.264;11.436;2023-08-01T16:50:48;95126.09;;;19.23;100.00
13604;BME280;24578;48.264;11.436;2023-08-01T16:57:10;95123.84;;;19.20;100.00
13604;BME280;24578;48.264;11.436;2023-08-01T17:03:31;95125.47;;;19.21;100.00
13604;BME280;24578;48.264;11.436;2023-08-01T17:09:52;95129.28;;;19.19;100.00
13604;BME280;24578;48.264;11.436;2023-08-01T17:16:15;95137.50;;;19.09;100.00
13604;BME280;24578;48.264;11.436;2023-08-01T17:22:36;95148.78;;;19.09;100.00
13604;BME280;24578;48.264;11.436;2023-08-01T17:28:57;95149.72;;;19.01;100.00
13604;BME280;24578;48.264;11.436;2023-08-01T17:35:19;95157.59;;;19.01;100.00
13604;BME280;24578;48.264;11.436;2023-08-01T17:41:40;95153.81;;;19.04;100.00
13604;BME280;24578;48.264;11.436;2023-08-01T17:48:01;95171.78;;;18.85;100.00
13604;BME280;24578;48.264;11.436;2023-08-01T17:54:24;95182.78;;;18.74;100.00
13604;BME280;24578;48.264;11.436;2023-08-01T18:00:46;95184.75;;;18.50;100.00
13604;BME280;24578;48.264;11.436;2023-08-01T18:07:08;95196.44;;;18.33;100.00
13604;BME280;24578;48.264;11.436;2023-08-01T18:13:29;95195.75;;;18.24;100.00
13604;BME280;24578;48.264;11.436;2023-08-01T18:19:51;95217.44;;;18.18;100.00
13604;BME280;24578;48.264;11.436;2023-08-01T18:26:18;95221.06;;;17.87;100.00
13604;BME280;24578;48.264;11.436;2023-08-01T18:32:40;95224.66;;;17.71;100.00
13604;BME280;24578;48.264;11.436;2023-08-01T18:39:01;95241.97;;;17.57;100.00
13604;BME280;24578;48.264;11.436;2023-08-01T18:45:23;95249.56;;;17.67;100.00
13604;BME280;24578;48.264;11.436;2023-08-01T18:51:44;95254.44;;;17.55;100.00
13604;BME280;24578;48.264;11.436;2023-08-01T18:58:05;95261.88;;;17.43;100.00
13604;BME280;24578;48.264;11.436;2023-08-01T19:04:27;95264.63;;;17.26;100.00
13604;BME280;24578;48.264;11.436;2023-08-01T19:10:49;95267.09;;;17.28;100.00
13604;BME280;24578;48.264;11.436;2023-08-01T19:17:10;95278.19;;;17.07;100.00
13604;BME280;24578;48.264;11.436;2023-08-01T19:23:31;95289.09;;;16.87;100.00
13604;BME280;24578;48.264;11.436;2023-08-01T19:29:53;95301.19;;;16.88;100.00
13604;BME280;24578;48.264;11.436;2023-08-01T19:36:15;95313.53;;;17.02;100.00
13604;BME280;24578;48.264;11.436;2023-08-01T19:42:36;95317.94;;;17.25;100.00
13604;BME280;24578;48.264;11.436;2023-08-01T19:48:57;95316.78;;;17.04;100.00
13604;BME280;24578;48.264;11.436;2023-08-01T19:55:18;95314.97;;;17.05;100.00
13604;BME280;24578;48.264;11.436;2023-08-01T20:01:40;95337.13;;;16.86;100.00
13604;BME280;24578;48.264;11.436;2023-08-01T20:08:02;95345.41;;;16.89;100.00
13604;BME280;24578;48.264;11.436;2023-08-01T20:14:24;95349.84;;;16.89;100.00
13604;BME280;24578;48.264;11.436;2023-08-01T20:20:46;95352.75;;;16.94;100.00
13604;BME280;24578;48.264;11.436;2023-08-01T20:27:07;95350.66;;;16.89;100.00
13604;BME280;24578;48.264;11.436;2023-08-01T20:33:32;95354.78;;;16.75;100.00
13604;BME280;24578;48.264;11.436;2023-08-01T20:39:53;95363.28;;;16.78;100.00
13604;BME280;24578;48.264;11.436;2023-08-01T20:46:15;95366.06;;;16.76;100.00
13604;BME280;24578;48.264;11.436;2023-08-01T20:52:36;95380.91;;;16.75;100.00
13604;BME280;24578;48.264;11.436;2023-08-01T20:59:00;95385.88;;;16.62;100.00
13604;BME280;24578;48.264;11.436;2023-08-01T21:05:22;95377.44;;;16.52;100.00
13604;BME280;24578;48.264;11.436;2023-08-01T21:11:43;95390.50;;;16.43;100.00
13604;BME280;24578;48.264;11.436;2023-08-01T21:18:04;95408.19;;;16.33;100.00
13604;BME280;24578;48.264;11.436;2023-08-01T21:24:25;95397.13;;;16.23;100.00
13604;BME280;24578;48.264;11.436;2023-08-01T21:30:47;95403.66;;;16.02;100.00
13604;BME280;24578;48.264;11.436;2023-08-01T21:37:08;95395.84;;;15.94;100.00
13604;BME280;24578;48.264;11.436;2023-08-01T21:43:29;95408.88;;;15.77;100.00
13604;BME280;24578;48.264;11.436;2023-08-01T21:49:51;95417.34;;;15.63;100.00
13604;BME280;24578;48.264;11.436;2023-08-01T21:56:12;95418.94;;;15.39;100.00
13604;BME280;24578;48.264;11.436;2023-08-01T22:02:33;95433.31;;;15.43;100.00
13604;BME280;24578;48.264;11.436;2023-08-01T22:08:54;95433.63;;;15.40;100.00
13604;BME280;24578;48.264;11.436;2023-08-01T22:15:16;95434.06;;;15.19;100.00
13604;BME280;24578;48.264;11.436;2023-08-01T22:21:37;95439.25;;;15.11;100.00
13604;BME280;24578;48.264;11.436;2023-08-01T22:27:58;95434.50;;;15.06;100.00
13604;BME280;24578;48.264;11.436;2023-08-01T22:34:19;95435.78;;;14.94;100.00
13604;BME280;24578;48.264;11.436;2023-08-01T22:40:40;95442.63;;;14.86;100.00
13604;BME280;24578;48.264;11.436;2023-08-01T22:47:02;95444.38;;;14.77;100.00
13604;BME280;24578;48.264;11.436;2023-08-01T22:53:24;95447.66;;;14.61;100.00
13604;BME280;24578;48.264;11.436;2023-08-01T22:59:45;95454.16;;;14.57;100.00
13604;BME280;24578;48.264;11.436;2023-08-01T23:06:06;95460.59;;;14.45;100.00
13604;BME280;24578;48.264;11.436;2023-08-01T23:12:28;95461.53;;;14.36;100.00
13604;BME280;24578;48.264;11.436;2023-08-01T23:18:49;95465.97;;;14.43;100.00
13604;BME280;24578;48.264;11.436;2023-08-01T23:25:10;95470.72;;;14.48;100.00
13604;BME280;24578;48.264;11.436;2023-08-01T23:31:31;95473.56;;;14.37;100.00
13604;BME280;24578;48.264;11.436;2023-08-01T23:37:52;95476.06;;;14.20;100.00
13604;BME280;24578;48.264;11.436;2023-08-01T23:44:13;95486.47;;;14.20;100.00
13604;BME280;24578;48.264;11.436;2023-08-01T23:50:37;95487.91;;;14.14;100.00
13604;BME280;24578;48.264;11.436;2023-08-01T23:56:58;95483.44;;;14.07;100.00
